< < Back
Terminal Aerodrome Forecast


Current Version              Previous Versions:   1  2  3  4  5  6  7  8  9  

Terminal Aerodrome Forecast

400
FTUS42 KTAE 021100
TAFABY
TAF
KABY 021136Z 0212/0312 VRB03KT 1SM BR OVC002
      TEMPO 0212/0215 1/4SM FG VV001
     FM021600 VRB04KT 5SM BR OVC007
     FM021800 VRB04KT P6SM OVC025
     FM030000 00000KT P6SM OVC050
     FM030600 10002KT 4SM BR OVC050=

Latest METAR

938
SAUS70 KWBC 021300
MTRABY
METAR KABY 021253Z 00000KT 1/4SM FG VV002 10/10 A3035 RMK AO2 SLP276
T01000100


USA.gov is the U.S. government's official web portal to all federal, state and local government web resources and services.